Time;durP1;ratioP1;P1;durP2;ratioP2;P2;SDS_P1;SDS_P2;PMS_P1;PMS_P2;Temp;Humidity;BMP_temperature;BMP_pressure;BME280_temperature;BME280_humidity;BME280_pressure;Samples;Min_cycle;Max_cycle;Signal;HPM_P1;HPM_P2
2022/01/24 00:01:59;;;;;;;18.12;8.70;;;;;;;-4.74;71.73;102625.56;1764317;81;26076;-64
2022/01/24 00:04:27;;;;;;;15.28;7.85;;;;;;;-4.73;71.51;102626.90;1770981;80;25793;-64
2022/01/24 00:06:53;;;;;;;13.58;6.30;;;;;;;-4.71;71.15;102635.64;1770944;80;27459;-64
2022/01/24 00:09:21;;;;;;;17.98;9.13;;;;;;;-4.67;70.64;102631.73;1770690;81;25715;-64
2022/01/24 00:14:54;;;;;;;16.62;8.58;;;;;;;-4.68;70.51;102642.68;1775728;79;26550;-64
2022/01/24 00:27:52;;;;;;;12.00;7.22;;;;;;;-4.68;70.45;102654.91;1739442;81;26771;-63
2022/01/24 00:30:19;;;;;;;13.38;7.60;;;;;;;-4.66;70.17;102654.50;1740228;81;25731;-63
2022/01/24 00:32:46;;;;;;;15.13;8.18;;;;;;;-4.66;70.25;102659.75;1766233;79;27436;-63
2022/01/24 00:35:13;;;;;;;16.17;7.37;;;;;;;-4.67;70.35;102665.45;1771053;80;25694;-61
2022/01/24 00:38:02;;;;;;;13.53;6.87;;;;;;;-4.66;70.40;102672.88;1769879;79;25826;-62
2022/01/24 00:40:34;;;;;;;15.32;7.95;;;;;;;-4.65;70.44;102665.45;1748515;81;26826;-62
2022/01/24 00:43:00;;;;;;;13.28;6.58;;;;;;;-4.68;70.51;102661.48;1739868;82;25808;-63
2022/01/24 00:45:37;;;;;;;18.12;8.55;;;;;;;-4.70;70.63;102666.73;1740991;81;27411;-62
2022/01/24 00:53:29;;;;;;;14.40;8.53;;;;;;;-4.66;70.71;102668.94;1766461;80;26110;-63
2022/01/24 00:55:48;;;;;;;16.23;8.43;;;;;;;-4.64;70.61;102673.33;1729947;82;26317;-63
2022/01/24 00:58:17;;;;;;;15.93;8.43;;;;;;;-4.62;70.59;102678.61;1731823;81;28172;-63
2022/01/24 01:00:46;;;;;;;13.45;6.42;;;;;;;-4.60;70.45;102678.16;1731965;81;25758;-63
2022/01/24 01:03:13;;;;;;;15.60;7.50;;;;;;;-4.57;70.08;102681.67;1731554;82;25688;-63
2022/01/24 01:19:05;;;;;;;16.02;8.53;;;;;;;-4.57;70.32;102676.42;1802964;79;26110;-62
2022/01/24 01:21:33;;;;;;;17.90;8.80;;;;;;;-4.54;70.02;102672.95;1803173;79;25518;-61
2022/01/24 01:24:00;;;;;;;15.65;8.53;;;;;;;-4.52;70.01;102679.52;1792600;79;27031;-61
2022/01/24 01:26:47;;;;;;;16.90;8.20;;;;;;;-4.53;69.78;102680.39;1753868;81;25839;-62
2022/01/24 01:31:54;;;;;;;13.25;6.97;;;;;;;-4.54;69.57;102672.06;1707396;82;27147;-62
2022/01/24 01:37:17;;;;;;;12.18;7.55;;;;;;;-4.52;69.42;102681.70;1676350;85;27575;-62
2022/01/24 01:55:45;;;;;;;14.30;7.47;;;;;;;-4.67;69.56;102717.97;1771043;80;25659;-62
2022/01/24 01:58:18;;;;;;;18.80;8.95;;;;;;;-4.66;69.59;102716.21;1761868;79;26127;-62
2022/01/24 02:00:53;;;;;;;13.78;7.10;;;;;;;-4.64;69.38;102709.23;1762142;80;25722;-63
2022/01/24 02:03:22;;;;;;;16.87;7.90;;;;;;;-4.69;69.56;102709.20;1748728;81;28198;-64
2022/01/24 02:05:52;;;;;;;18.35;10.00;;;;;;;-4.71;69.59;102724.92;1746965;82;25768;-63
2022/01/24 02:08:28;;;;;;;18.82;9.03;;;;;;;-4.70;69.62;102727.14;1785251;80;25479;-63
2022/01/24 02:10:57;;;;;;;17.55;8.93;;;;;;;-4.69;69.59;102733.25;1745950;81;26092;-62
2022/01/24 02:13:27;;;;;;;13.13;7.50;;;;;;;-4.66;69.56;102738.54;1741517;82;25779;-63
2022/01/24 02:18:52;;;;;;;16.17;6.17;;;;;;;-4.67;69.72;102733.73;1718471;83;25895;-62
2022/01/24 02:23:57;;;;;;;19.75;9.88;;;;;;;-4.75;69.72;102737.61;1770881;79;26102;-62
2022/01/24 02:26:22;;;;;;;16.42;9.28;;;;;;;-4.75;69.81;102731.05;1752400;80;25753;-62
2022/01/24 02:29:07;;;;;;;19.27;9.40;;;;;;;-4.71;69.84;102745.07;1756774;81;27485;-62
2022/01/24 02:31:41;;;;;;;13.48;8.25;;;;;;;-4.69;69.84;102742.03;1775851;80;25622;-63
2022/01/24 02:34:28;;;;;;;19.82;10.08;;;;;;;-4.67;69.81;102748.59;1788487;80;25792;-62
2022/01/24 02:37:00;;;;;;;19.50;9.38;;;;;;;-4.68;69.62;102748.14;1773018;80;27005;-63
2022/01/24 02:39:49;;;;;;;18.02;9.15;;;;;;;-4.68;69.75;102756.02;1757266;81;25735;-62
2022/01/24 02:53:11;;;;;;;22.07;10.63;;;;;;;-4.74;69.45;102763.42;1733447;82;25707;-62
2022/01/24 02:55:40;;;;;;;17.05;8.60;;;;;;;-4.75;69.45;102761.69;1733200;82;28192;-62
2022/01/24 02:58:07;;;;;;;18.62;8.95;;;;;;;-4.73;69.52;102762.14;1731409;82;25787;-62
2022/01/24 03:00:38;;;;;;;18.48;9.50;;;;;;;-4.73;69.11;102768.70;1733238;82;25849;-61
2022/01/24 03:03:06;;;;;;;18.82;8.90;;;;;;;-4.77;69.23;102775.23;1741224;80;26114;-62
2022/01/24 03:05:32;;;;;;;17.90;9.05;;;;;;;-4.76;69.37;102779.17;1791713;79;25727;-62
2022/01/24 03:08:03;;;;;;;16.40;9.05;;;;;;;-4.79;69.13;102783.08;1782342;80;27527;-62
2022/01/24 03:10:37;;;;;;;19.52;10.35;;;;;;;-4.81;69.01;102780.00;1781440;80;25725;-62
2022/01/24 03:13:10;;;;;;;20.08;9.45;;;;;;;-4.83;69.22;102785.25;1781244;80;25897;-62
2022/01/24 03:15:31;;;;;;;16.45;8.65;;;;;;;-4.82;69.13;102794.89;1780596;80;26120;-62
2022/01/24 03:17:58;;;;;;;16.87;10.13;;;;;;;-4.82;69.12;102779.55;1782460;80;25686;-62
2022/01/24 03:20:28;;;;;;;15.72;8.33;;;;;;;-4.82;69.16;102789.64;1782572;80;27521;-63
2022/01/24 03:22:54;;;;;;;21.35;8.73;;;;;;;-4.81;69.13;102793.13;1809437;79;25768;-62
2022/01/24 03:25:21;;;;;;;16.35;8.53;;;;;;;-4.85;68.91;102790.91;1802196;78;25672;-62
2022/01/24 03:27:48;;;;;;;19.05;8.30;;;;;;;-4.85;69.08;102786.98;1751556;80;26782;-64
2022/01/24 03:30:14;;;;;;;15.45;7.20;;;;;;;-4.90;69.13;102802.69;1751643;81;25731;-62
2022/01/24 03:32:41;;;;;;;16.87;6.62;;;;;;;-4.88;69.16;102810.57;1751490;80;27457;-62
2022/01/24 03:35:09;;;;;;;18.23;8.78;;;;;;;-4.88;68.89;102814.51;1751375;81;27193;-62
2022/01/24 03:37:39;;;;;;;16.95;8.35;;;;;;;-4.91;68.94;102821.94;1775445;80;25805;-62
2022/01/24 03:40:07;;;;;;;16.27;9.03;;;;;;;-4.91;68.90;102822.38;1811381;79;26337;-62
2022/01/24 03:42:36;;;;;;;15.30;7.40;;;;;;;-4.91;68.98;102818.44;1814499;79;25736;-64
2022/01/24 03:45:07;;;;;;;18.80;9.23;;;;;;;-4.91;69.10;102815.81;1778578;80;28290;-62
2022/01/24 03:50:20;;;;;;;16.65;9.00;;;;;;;-4.92;69.03;102817.55;1778641;80;25734;-63
2022/01/24 03:52:47;;;;;;;13.22;7.80;;;;;;;-4.93;68.91;102821.48;1747454;81;26112;-62
2022/01/24 03:55:17;;;;;;;16.25;8.38;;;;;;;-4.96;68.96;102822.75;1809895;79;25754;-62
2022/01/24 03:57:44;;;;;;;14.43;8.68;;;;;;;-4.94;68.95;102822.34;1782779;80;27553;-63
2022/01/24 04:00:12;;;;;;;17.02;8.95;;;;;;;-4.92;69.05;102815.37;1782676;80;25784;-63
2022/01/24 04:02:42;;;;;;;20.20;8.15;;;;;;;-4.92;69.11;102814.92;1784167;79;25721;-63
2022/01/24 04:05:10;;;;;;;14.10;8.45;;;;;;;-4.88;68.98;102825.02;1784876;80;26103;-63
2022/01/24 04:07:37;;;;;;;16.97;9.08;;;;;;;-4.91;68.82;102828.50;1785322;80;25800;-62
2022/01/24 04:10:07;;;;;;;17.77;9.55;;;;;;;-4.91;68.93;102825.00;1780300;80;27567;-63
2022/01/24 04:12:40;;;;;;;14.83;8.05;;;;;;;-4.90;68.88;102832.02;1747886;81;25866;-62
2022/01/24 04:17:47;;;;;;;13.48;7.60;;;;;;;-4.88;68.78;102836.41;1749837;81;26198;-62
2022/01/24 04:23:01;;;;;;;16.27;8.83;;;;;;;-4.88;68.62;102843.39;1750339;81;27368;-62
2022/01/24 04:25:28;;;;;;;12.40;7.97;;;;;;;-4.87;68.41;102845.16;1745892;81;26351;-62
2022/01/24 04:27:55;;;;;;;12.98;7.85;;;;;;;-4.89;68.51;102841.21;1771731;80;25737;-62
2022/01/24 04:30:24;;;;;;;15.68;7.92;;;;;;;-4.86;68.48;102845.60;1748703;82;26119;-62
2022/01/24 04:32:51;;;;;;;16.37;7.55;;;;;;;-4.86;68.46;102853.48;1750092;82;25806;-62
2022/01/24 04:35:18;;;;;;;12.28;7.45;;;;;;;-4.85;68.31;102853.06;1749860;82;28358;-61
2022/01/24 04:37:45;;;;;;;14.25;7.50;;;;;;;-4.85;68.27;102847.37;1749864;82;25777;-63
2022/01/24 04:40:12;;;;;;;12.58;7.05;;;;;;;-4.86;68.17;102852.17;1749583;81;25711;-62
2022/01/24 04:42:50;;;;;;;18.07;7.67;;;;;;;-4.87;68.11;102851.30;1750864;80;26090;-62
2022/01/24 04:45:36;;;;;;;13.80;7.87;;;;;;;-4.84;68.10;102845.64;1748523;81;27303;-63
2022/01/24 04:50:59;;;;;;;12.25;6.62;;;;;;;-4.84;68.04;102843.02;1719829;83;27168;-62
2022/01/24 04:54:25;;;;;;;8.98;5.40;;;;;;;-4.85;68.18;102846.50;1717204;83;25706;-62
2022/01/24 04:55:40;;;;;;;14.78;7.90;;;;;;;-4.84;68.23;102855.70;1732437;81;29393;-61
2022/01/24 04:58:07;;;;;;;11.25;6.50;;;;;;;-4.88;68.21;102852.58;1749793;82;25728;-61
2022/01/24 05:00:34;;;;;;;15.03;7.15;;;;;;;-4.88;68.14;102853.48;1749933;82;27456;-62
2022/01/24 05:03:00;;;;;;;10.82;6.25;;;;;;;-4.90;68.36;102853.02;1741464;81;25726;-62
2022/01/24 05:05:28;;;;;;;10.72;6.35;;;;;;;-4.89;68.46;102854.78;1768743;79;25756;-62
2022/01/24 05:07:55;;;;;;;13.15;8.03;;;;;;;-4.86;68.68;102856.11;1767176;80;26108;-63
2022/01/24 05:10:34;;;;;;;13.55;7.47;;;;;;;-4.86;68.60;102854.80;1765975;81;25858;-63
2022/01/24 05:21:31;;;;;;;12.93;7.80;;;;;;;-4.81;68.61;102866.66;1689000;82;26610;-63
2022/01/24 05:23:43;;;;;;;14.28;6.80;;;;;;;-4.79;68.60;102874.98;1771189;79;25770;-63
2022/01/24 05:26:10;;;;;;;12.68;6.78;;;;;;;-4.77;68.47;102864.52;1769122;79;27463;-63
2022/01/24 05:28:39;;;;;;;11.63;7.33;;;;;;;-4.77;68.47;102860.58;1773703;79;25464;-63
2022/01/24 05:31:06;;;;;;;9.50;6.10;;;;;;;-4.77;68.51;102860.13;1776933;79;25719;-63
2022/01/24 05:33:35;;;;;;;17.55;7.85;;;;;;;-4.74;68.51;102853.61;1774076;79;26872;-64
2022/01/24 05:36:03;;;;;;;12.35;6.85;;;;;;;-4.75;68.40;102866.28;1774488;79;25792;-63
2022/01/24 05:38:29;;;;;;;13.68;7.53;;;;;;;-4.73;68.42;102882.94;1734534;80;27476;-63
2022/01/24 05:40:57;;;;;;;12.25;6.35;;;;;;;-4.72;68.30;102885.13;1770834;79;25903;-63
2022/01/24 05:43:26;;;;;;;13.15;7.35;;;;;;;-4.72;68.26;102875.93;1777288;79;25658;-62
2022/01/24 05:45:55;;;;;;;11.73;6.65;;;;;;;-4.72;68.19;102872.89;1739729;82;26035;-63
2022/01/24 05:48:21;;;;;;;14.05;7.10;;;;;;;-4.71;68.06;102873.75;1740114;81;25773;-63
2022/01/24 05:50:50;;;;;;;18.50;7.95;;;;;;;-4.73;68.14;102871.54;1739958;81;26758;-63
2022/01/24 05:53:17;;;;;;;16.82;8.68;;;;;;;-4.72;68.19;102872.89;1739904;82;25816;-63
2022/01/24 05:55:43;;;;;;;13.75;7.28;;;;;;;-4.73;67.95;102877.69;1739653;82;25767;-63
2022/01/24 05:58:11;;;;;;;12.85;6.05;;;;;;;-4.75;68.02;102878.10;1752476;80;26056;-63
2022/01/24 06:00:41;;;;;;;13.65;6.95;;;;;;;-4.76;68.20;102881.59;1776103;79;25681;-63
2022/01/24 06:03:09;;;;;;;14.28;8.20;;;;;;;-4.72;68.08;102885.13;1767591;79;28143;-63
2022/01/24 06:05:36;;;;;;;16.20;7.12;;;;;;;-4.72;67.98;102878.14;1765096;80;25850;-63
2022/01/24 06:08:06;;;;;;;17.37;7.75;;;;;;;-4.73;68.03;102884.67;1771081;79;26392;-63
2022/01/24 06:10:32;;;;;;;13.93;7.55;;;;;;;-4.70;68.17;102893.91;1772677;79;26126;-63
2022/01/24 06:13:00;;;;;;;15.55;7.95;;;;;;;-4.67;68.21;102896.98;1772419;79;25717;-62
2022/01/24 06:15:27;;;;;;;17.35;8.30;;;;;;;-4.66;68.17;102903.55;1739571;80;27356;-62
2022/01/24 06:17:56;;;;;;;15.72;7.97;;;;;;;-4.63;68.00;102900.10;1733578;82;25458;-62
2022/01/24 06:20:24;;;;;;;16.82;8.48;;;;;;;-4.56;67.77;102898.83;1802627;79;25681;-64
2022/01/24 06:22:51;;;;;;;20.65;9.33;;;;;;;-4.58;67.66;102914.14;1802548;79;26101;-62
2022/01/24 06:25:23;;;;;;;17.37;8.93;;;;;;;-4.59;67.55;102909.75;1776484;79;25785;-62
2022/01/24 06:27:52;;;;;;;18.67;8.58;;;;;;;-4.56;67.67;102901.46;1771093;80;27524;-62
2022/01/24 06:30:22;;;;;;;17.70;9.20;;;;;;;-4.49;67.67;102912.91;1770516;81;25841;-63
2022/01/24 06:32:49;;;;;;;14.33;7.10;;;;;;;-4.48;67.50;102923.88;1770846;80;25751;-63
2022/01/24 06:35:16;;;;;;;16.50;7.70;;;;;;;-4.44;67.60;102919.07;1770644;81;25821;-63
2022/01/24 06:37:43;;;;;;;15.95;8.40;;;;;;;-4.37;67.59;102917.84;1769987;80;27217;-62
2022/01/24 06:40:14;;;;;;;14.28;7.85;;;;;;;-4.33;67.30;102927.07;1770494;81;27488;-62
2022/01/24 06:42:43;;;;;;;13.70;8.27;;;;;;;-4.33;67.29;102923.55;1721717;80;25911;-63
2022/01/24 06:45:10;;;;;;;13.83;7.62;;;;;;;-4.29;67.03;102928.84;1716554;82;25768;-63
2022/01/24 06:47:44;;;;;;;14.87;7.25;;;;;;;-4.24;66.93;102928.88;1715493;83;26106;-63
2022/01/24 06:50:11;;;;;;;14.25;8.13;;;;;;;-4.21;66.83;102923.66;1715985;83;25674;-63
2022/01/24 06:52:38;;;;;;;12.47;7.05;;;;;;;-4.18;66.76;102936.84;1715915;83;27491;-63
2022/01/24 06:55:09;;;;;;;13.70;7.17;;;;;;;-4.14;66.78;102932.03;1715800;82;25515;-63
2022/01/24 06:57:36;;;;;;;15.65;8.65;;;;;;;-4.07;66.82;102936.01;1715701;83;25706;-64
2022/01/24 07:00:06;;;;;;;20.95;9.23;;;;;;;-4.05;66.73;102937.80;1715908;83;27081;-64
2022/01/24 07:02:33;;;;;;;15.30;7.65;;;;;;;-3.99;66.94;102947.05;1716863;82;25824;-64
2022/01/24 07:05:02;;;;;;;18.90;8.85;;;;;;;-3.95;66.42;102938.32;1705573;82;27541;-64
2022/01/24 07:07:30;;;;;;;14.28;8.00;;;;;;;-3.93;66.13;102943.58;1739155;82;25897;-63
2022/01/24 07:09:57;;;;;;;18.40;7.97;;;;;;;-3.91;66.31;102952.37;1738790;82;25763;-63
2022/01/24 07:12:24;;;;;;;16.65;9.13;;;;;;;-3.86;66.38;102946.69;1738785;82;28264;-63
2022/01/24 07:14:52;;;;;;;13.43;7.50;;;;;;;-3.86;66.03;102944.52;1705367;82;25766;-63
2022/01/24 07:19:51;;;;;;;14.43;6.97;;;;;;;-3.83;66.01;102937.94;1705618;84;25809;-63
2022/01/24 07:22:18;;;;;;;14.23;7.70;;;;;;;-3.81;65.77;102939.70;1739075;82;25746;-62
2022/01/24 07:24:45;;;;;;;17.07;8.25;;;;;;;-3.79;65.47;102944.98;1745405;82;26781;-63
2022/01/24 07:27:12;;;;;;;14.50;7.78;;;;;;;-3.80;65.55;102947.17;1776204;80;25702;-63
2022/01/24 07:29:39;;;;;;;14.30;8.10;;;;;;;-3.78;65.43;102952.88;1719619;81;27453;-63
2022/01/24 07:32:07;;;;;;;13.00;7.55;;;;;;;-3.72;64.86;102949.86;1743289;82;25918;-62
2022/01/24 07:34:34;;;;;;;12.50;6.97;;;;;;;-3.80;64.79;102945.86;1742880;82;25641;-62
2022/01/24 07:37:05;;;;;;;14.33;7.47;;;;;;;-3.81;64.97;102937.52;1743345;81;26107;-63
2022/01/24 07:39:32;;;;;;;14.07;7.85;;;;;;;-3.80;64.83;102939.28;1742592;82;25774;-63
2022/01/24 07:42:04;;;;;;;19.15;10.23;;;;;;;-3.83;64.74;102948.04;1745582;82;27521;-64
2022/01/24 07:44:27;;;;;;;13.85;8.23;;;;;;;-3.80;64.98;102951.98;1775238;79;25750;-63
2022/01/24 07:46:54;;;;;;;18.48;8.98;;;;;;;-3.75;64.88;102949.38;1748520;81;25730;-63
2022/01/24 07:49:21;;;;;;;15.98;7.65;;;;;;;-3.71;65.08;102955.13;1776100;80;26095;-64
2022/01/24 07:51:50;;;;;;;15.85;8.95;;;;;;;-3.65;64.85;102953.84;1751548;81;25532;-63
2022/01/24 07:54:19;;;;;;;14.93;7.90;;;;;;;-3.63;64.75;102956.50;1775608;80;27503;-62
2022/01/24 07:56:46;;;;;;;17.12;9.10;;;;;;;-3.52;64.64;102959.18;1748682;81;25573;-62
2022/01/24 07:59:14;;;;;;;16.37;8.65;;;;;;;-3.49;64.43;102959.17;1776097;80;25763;-64
2022/01/24 08:01:42;;;;;;;17.55;8.88;;;;;;;-3.45;64.29;102962.28;1751656;81;26111;-61
2022/01/24 08:04:09;;;;;;;16.70;8.78;;;;;;;-3.40;63.82;102966.26;1770526;80;25781;-62
2022/01/24 08:06:36;;;;;;;15.50;8.83;;;;;;;-3.39;64.18;102959.67;1740896;82;27451;-62
2022/01/24 08:09:05;;;;;;;16.93;8.03;;;;;;;-3.27;64.03;102970.69;1765773;81;25774;-62
2022/01/24 08:11:32;;;;;;;19.35;9.38;;;;;;;-3.24;63.25;102965.45;1741515;82;25813;-63
2022/01/24 08:13:59;;;;;;;14.07;7.85;;;;;;;-3.22;62.88;102960.19;1741694;82;26099;-62
2022/01/24 08:16:28;;;;;;;16.65;8.35;;;;;;;-3.12;63.42;102958.48;1741580;82;25837;-63
2022/01/24 08:19:00;;;;;;;18.42;10.03;;;;;;;-3.03;61.64;102966.42;1741643;82;28061;-63
2022/01/24 08:21:27;;;;;;;12.75;6.37;;;;;;;-3.13;61.97;102963.30;1741252;82;25726;-64
2022/01/24 08:23:56;;;;;;;18.73;8.85;;;;;;;-3.12;61.63;102962.44;1740979;82;26112;-64
2022/01/24 08:26:23;;;;;;;17.55;10.10;;;;;;;-3.17;61.77;102959.34;1739460;82;26107;-64
2022/01/24 08:28:50;;;;;;;17.87;8.85;;;;;;;-3.14;61.96;102969.02;1727170;82;25762;-64
2022/01/24 08:31:20;;;;;;;18.32;8.15;;;;;;;-3.11;62.02;102970.78;1773329;80;27485;-64
2022/01/24 08:33:47;;;;;;;13.98;7.30;;;;;;;-3.07;61.60;102960.69;1773444;80;25808;-63
2022/01/24 08:36:14;;;;;;;17.30;8.70;;;;;;;-3.04;61.19;102972.56;1774182;80;25716;-63
2022/01/24 08:38:41;;;;;;;13.88;7.42;;;;;;;-3.02;60.72;102968.19;1773582;80;26165;-63
2022/01/24 08:41:18;;;;;;;10.32;6.40;;;;;;;-3.00;61.68;102969.95;1785022;78;26396;-63
2022/01/24 08:46:16;;;;;;;11.70;6.58;;;;;;;-2.87;61.23;102970.00;1784425;80;25822;-63
2022/01/24 08:48:45;;;;;;;17.55;8.95;;;;;;;-2.76;61.41;102968.70;1820260;78;26427;-63
2022/01/24 08:51:12;;;;;;;15.63;8.13;;;;;;;-2.70;61.38;102971.34;1782789;78;26110;-63
2022/01/24 08:53:38;;;;;;;12.03;6.05;;;;;;;-2.68;60.75;102976.19;1773620;80;25936;-64
2022/01/24 08:56:07;;;;;;;17.42;8.38;;;;;;;-2.66;60.51;102975.76;1773523;80;27472;-64
2022/01/24 08:58:35;;;;;;;18.95;8.40;;;;;;;-2.64;60.73;102970.03;1773406;80;25699;-63
2022/01/24 09:01:02;;;;;;;17.92;9.88;;;;;;;-2.59;61.22;102979.27;1773645;80;25734;-63
2022/01/24 09:03:33;;;;;;;14.45;8.23;;;;;;;-2.58;61.13;102980.61;1774118;79;26894;-62
2022/01/24 09:06:01;;;;;;;17.73;9.38;;;;;;;-2.57;61.21;102982.37;1777942;80;26054;-62
2022/01/24 09:08:30;;;;;;;14.68;8.40;;;;;;;-2.57;61.12;102988.05;1778064;80;28156;-63
2022/01/24 09:11:01;;;;;;;14.55;7.25;;;;;;;-2.50;61.22;102988.50;1778011;80;25840;-63
2022/01/24 09:13:30;;;;;;;11.08;5.67;;;;;;;-2.55;60.07;102982.36;1778481;80;25795;-63
2022/01/24 09:15:57;;;;;;;6.75;3.87;;;;;;;-2.62;59.46;102985.86;1777836;80;26854;-62
2022/01/24 09:18:24;;;;;;;7.50;5.00;;;;;;;-2.62;57.89;102985.86;1778063;80;25521;-64
2022/01/24 09:20:51;;;;;;;10.40;5.55;;;;;;;-2.79;58.09;102990.66;1778409;80;27451;-63
2022/01/24 09:23:19;;;;;;;11.20;5.40;;;;;;;-2.86;58.36;102984.90;1778923;80;25681;-64
2022/01/24 09:25:48;;;;;;;8.90;5.55;;;;;;;-2.85;58.54;102988.87;1737439;82;25809;-64
2022/01/24 09:28:16;;;;;;;8.90;5.47;;;;;;;-2.86;58.65;102988.43;1750122;81;26184;-64
2022/01/24 09:30:45;;;;;;;10.03;5.60;;;;;;;-2.97;57.97;102986.19;1770114;80;25735;-64
2022/01/24 09:33:13;;;;;;;12.07;6.03;;;;;;;-2.96;58.77;102985.77;1770694;80;28139;-64
2022/01/24 09:35:42;;;;;;;10.85;6.50;;;;;;;-2.94;58.93;102995.84;1771654;80;25725;-64
2022/01/24 09:38:09;;;;;;;5.62;3.80;;;;;;;-3.04;58.11;102994.95;1770721;80;25732;-64
2022/01/24 09:40:36;;;;;;;8.85;4.97;;;;;;;-3.03;58.65;102984.41;1770452;81;26078;-63
2022/01/24 09:43:03;;;;;;;10.68;6.25;;;;;;;-3.06;58.89;102981.78;1770315;81;25742;-63
2022/01/24 09:45:30;;;;;;;12.25;6.50;;;;;;;-3.08;58.96;102970.36;1770742;81;27487;-64
2022/01/24 09:47:59;;;;;;;10.55;5.90;;;;;;;-3.07;58.96;102973.44;1770856;80;25834;-64
2022/01/24 09:50:26;;;;;;;13.22;6.62;;;;;;;-3.08;59.01;102977.36;1770848;80;25618;-62
2022/01/24 09:52:53;;;;;;;9.65;6.10;;;;;;;-3.08;58.65;102972.09;1770975;80;27348;-64
2022/01/24 09:55:23;;;;;;;11.83;6.03;;;;;;;-3.12;58.85;102972.97;1770899;81;25861;-64
2022/01/24 09:57:52;;;;;;;17.50;8.83;;;;;;;-3.16;59.10;102972.95;1769709;80;27445;-63
2022/01/24 10:00:26;;;;;;;13.05;7.90;;;;;;;-3.22;59.66;102968.98;1771078;80;25757;-65
2022/01/24 10:02:55;;;;;;;20.32;8.90;;;;;;;-3.24;60.27;102969.85;1770451;80;25828;-62
2022/01/24 10:05:27;;;;;;;19.25;8.60;;;;;;;-3.33;60.24;102960.14;1770898;80;26675;-62
2022/01/24 10:08:02;;;;;;;17.82;9.70;;;;;;;-3.51;60.49;102952.60;1769525;81;26015;-62
2022/01/24 10:10:45;;;;;;;18.17;8.63;;;;;;;-3.54;60.92;102957.84;1771141;80;27495;-62
2022/01/24 10:19:09;;;;;;;15.05;8.05;;;;;;;-3.47;61.67;102958.34;1771342;80;26788;-62
2022/01/24 10:21:45;;;;;;;19.05;9.00;;;;;;;-3.37;61.88;102957.07;1770993;80;25857;-63
2022/01/24 10:24:37;;;;;;;16.30;9.30;;;;;;;-3.42;61.41;102957.05;1770960;80;28679;-63
2022/01/24 10:27:24;;;;;;;24.05;8.73;;;;;;;-3.31;61.92;102953.14;1763684;80;25453;-64
2022/01/24 10:30:03;;;;;;;17.65;9.43;;;;;;;-3.28;61.80;102941.74;1734199;80;25830;-62
2022/01/24 10:32:54;;;;;;;20.43;9.78;;;;;;;-3.31;61.19;102941.30;1733866;82;26780;-62
2022/01/24 10:35:46;;;;;;;14.53;8.05;;;;;;;-3.28;61.51;102945.27;1726733;81;25771;-62
2022/01/24 10:38:40;;;;;;;15.72;8.45;;;;;;;-3.31;61.22;102936.03;1769690;80;27402;-61
2022/01/24 10:43:49;;;;;;;16.70;9.13;;;;;;;-3.38;61.12;102956.63;1738770;81;25741;-62
2022/01/24 10:46:28;;;;;;;18.60;8.85;;;;;;;-3.33;61.58;102957.52;1770827;80;26092;-63
2022/01/24 10:49:09;;;;;;;14.43;8.40;;;;;;;-3.33;60.97;102950.94;1770337;80;25806;-62
2022/01/24 10:51:46;;;;;;;22.40;9.90;;;;;;;-3.27;61.38;102943.05;1771817;80;27978;-63
2022/01/24 10:54:21;;;;;;;17.75;9.10;;;;;;;-3.34;60.73;102953.12;1770895;80;25934;-62
2022/01/24 10:56:48;;;;;;;14.25;7.35;;;;;;;-3.49;61.05;102944.70;1765871;81;25956;-63
2022/01/24 10:59:24;;;;;;;18.82;9.93;;;;;;;-3.55;61.34;102935.47;1770736;80;54822;-62
2022/01/24 11:01:56;;;;;;;14.25;8.15;;;;;;;-3.46;61.66;102939.05;1769981;80;25758;-62
2022/01/24 11:04:26;;;;;;;14.78;8.28;;;;;;;-3.44;61.42;102940.36;1769304;80;28359;-62
2022/01/24 11:06:58;;;;;;;14.87;7.85;;;;;;;-3.43;61.40;102937.28;1784990;79;25697;-62
2022/01/24 11:09:32;;;;;;;18.05;8.63;;;;;;;-3.38;61.51;102922.41;1784382;80;25741;-62
2022/01/24 11:12:11;;;;;;;13.18;7.10;;;;;;;-3.37;60.92;102935.56;1783835;79;26125;-64
2022/01/24 11:14:46;;;;;;;13.72;7.33;;;;;;;-3.38;60.76;102927.22;1784536;80;25961;-61
2022/01/24 11:17:20;;;;;;;11.83;6.17;;;;;;;-3.38;60.50;102936.43;1784834;80;28100;-62
2022/01/24 11:19:57;;;;;;;13.95;7.00;;;;;;;-3.40;59.88;102928.95;1784538;80;29097;-62
2022/01/24 11:22:20;;;;;;;13.20;6.62;;;;;;;-3.33;60.07;102926.83;1783596;79;25720;-63
2022/01/24 11:24:55;;;;;;;13.48;7.10;;;;;;;-3.32;60.01;102929.87;1799665;79;26084;-62
2022/01/24 11:27:21;;;;;;;13.65;7.30;;;;;;;-3.24;60.01;102929.91;1770002;81;25774;-62
2022/01/24 11:30:14;;;;;;;13.35;6.72;;;;;;;-3.12;60.37;102927.75;1781964;79;27417;-62
2022/01/24 11:33:04;;;;;;;16.87;8.78;;;;;;;-3.07;59.96;102926.45;1779106;80;25764;-63
2022/01/24 11:35:45;;;;;;;14.68;6.50;;;;;;;-3.16;59.48;102925.55;1783196;80;25768;-63
2022/01/24 11:38:37;;;;;;;14.33;7.95;;;;;;;-3.28;59.12;102924.21;1768128;81;26169;-62
2022/01/24 11:41:33;;;;;;;14.33;7.40;;;;;;;-3.32;59.65;102926.38;1784130;79;25761;-62
2022/01/24 11:44:07;;;;;;;11.60;7.25;;;;;;;-3.38;59.78;102925.91;1780915;80;27506;-62
2022/01/24 11:46:45;;;;;;;11.45;6.60;;;;;;;-3.25;60.35;102918.94;1777128;80;25709;-62
2022/01/24 11:49:34;;;;;;;11.60;6.28;;;;;;;-3.11;60.13;102929.52;1779993;80;25460;-62
2022/01/24 11:52:14;;;;;;;13.58;6.83;;;;;;;-3.17;59.03;102933.45;1782257;80;26474;-60
2022/01/24 11:54:53;;;;;;;12.58;6.50;;;;;;;-3.11;59.59;102932.15;1780895;78;25711;-62
2022/01/24 11:57:33;;;;;;;16.48;7.53;;;;;;;-3.20;59.20;102936.97;1782462;80;27570;-62
2022/01/24 12:00:06;;;;;;;13.75;7.55;;;;;;;-3.18;59.73;102933.01;1782737;80;27250;-61
2022/01/24 12:02:46;;;;;;;14.40;8.38;;;;;;;-3.15;59.81;102939.62;1777163;80;25764;-63
2022/01/24 12:05:29;;;;;;;12.55;7.00;;;;;;;-3.10;59.90;102934.37;1754803;79;26085;-63
2022/01/24 12:08:04;;;;;;;16.95;7.95;;;;;;;-3.02;59.79;102930.00;1767115;80;26529;-62
2022/01/24 12:10:37;;;;;;;15.13;7.65;;;;;;;-3.04;59.43;102932.61;1768557;80;27355;-62
2022/01/24 12:13:14;;;;;;;14.67;7.37;;;;;;;-2.99;59.87;102933.94;1769854;80;25994;-63
2022/01/24 12:16:05;;;;;;;13.93;7.65;;;;;;;-2.91;59.44;102930.89;1768318;80;25884;-63
2022/01/24 12:18:37;;;;;;;13.45;7.33;;;;;;;-2.95;59.30;102924.29;1739564;80;26559;-63
2022/01/24 12:21:15;;;;;;;14.55;8.48;;;;;;;-2.86;59.47;102923.89;1721538;82;25788;-63
2022/01/24 12:23:48;;;;;;;18.90;8.80;;;;;;;-2.78;59.26;102930.47;1732980;81;27435;-63
2022/01/24 12:26:20;;;;;;;16.67;8.58;;;;;;;-2.74;59.18;102940.61;1776314;80;25777;-62
2022/01/24 12:29:07;;;;;;;12.45;7.25;;;;;;;-2.70;59.54;102938.41;1736190;82;25825;-62
2022/01/24 12:31:53;;;;;;;14.35;8.15;;;;;;;-2.75;58.45;102947.62;1770350;80;26164;-63
2022/01/24 12:34:37;;;;;;;14.23;7.80;;;;;;;-2.81;58.53;102940.12;1767728;80;25807;-63
2022/01/24 12:37:29;;;;;;;17.17;7.60;;;;;;;-2.96;58.76;102938.36;1738476;82;27558;-62
2022/01/24 12:40:05;;;;;;;18.77;10.28;;;;;;;-3.04;58.87;102943.59;1761330;80;25724;-63
2022/01/24 12:42:46;;;;;;;13.70;8.28;;;;;;;-3.09;59.33;102945.34;1768711;79;26448;-63
2022/01/24 12:48:14;;;;;;;15.10;7.35;;;;;;;-3.15;59.39;102947.52;1764221;80;25769;-62
2022/01/24 12:50:44;;;;;;;12.55;6.97;;;;;;;-3.32;59.29;102944.34;1759139;80;27499;-62
2022/01/24 12:53:14;;;;;;;17.05;8.65;;;;;;;-3.28;59.79;102944.38;1757296;80;25457;-62
2022/01/24 12:55:44;;;;;;;19.07;7.20;;;;;;;-3.25;59.99;102949.66;1761414;80;25673;-62
2022/01/24 12:58:11;;;;;;;15.08;8.03;;;;;;;-3.22;60.11;102954.50;1744586;80;26006;-62
2022/01/24 13:00:45;;;;;;;13.80;6.30;;;;;;;-3.18;59.66;102942.22;1758029;79;25776;-62
2022/01/24 13:03:16;;;;;;;14.98;7.35;;;;;;;-3.21;59.22;102944.41;1769004;80;27485;-64
2022/01/24 13:05:43;;;;;;;12.03;7.72;;;;;;;-3.39;59.06;102956.17;1763010;79;25489;-63
2022/01/24 13:08:14;;;;;;;9.93;6.97;;;;;;;-3.50;59.72;102945.60;1768600;81;25452;-63
2022/01/24 13:10:44;;;;;;;13.43;7.58;;;;;;;-3.51;60.02;102934.18;1764841;79;27140;-63
2022/01/24 13:13:15;;;;;;;16.02;7.15;;;;;;;-3.53;60.06;102931.97;1768680;80;25830;-63
2022/01/24 13:21:24;;;;;;;11.60;5.67;;;;;;;-3.58;59.79;102931.50;1766283;81;25789;-63
2022/01/24 13:23:54;;;;;;;10.82;6.17;;;;;;;-3.67;59.47;102924.45;1776539;80;26189;-63
2022/01/24 13:26:21;;;;;;;12.35;6.62;;;;;;;-3.67;59.77;102921.37;1766190;79;25687;-62